Time;durP1;ratioP1;P1;durP2;ratioP2;P2;SDS_P1;SDS_P2;PMS_P1;PMS_P2;Temp;Humidity;BMP_temperature;BMP_pressure;BME280_temperature;BME280_humidity;BME280_pressure;Samples;Min_cycle;Max_cycle;Signal;HPM_P1;HPM_P2
2022/07/01 00:01:57;;;;;;;;;;;19.80;99.90;;;;;;5019503;28;19975;-73
2022/07/01 00:04:26;;;;;;;;;;;19.80;99.90;;;;;;5019548;28;19940;-73
2022/07/01 00:06:54;;;;;;;;;;;19.80;99.90;;;;;;5018649;28;19906;-73
2022/07/01 00:09:20;;;;;;;;;;;19.70;99.90;;;;;;5017790;28;19909;-75
2022/07/01 00:11:46;;;;;;;;;;;19.70;99.90;;;;;;5016910;28;19905;-73
2022/07/01 00:14:12;;;;;;;;;;;19.50;99.90;;;;;;5016806;28;20379;-74
2022/07/01 00:16:38;;;;;;;;;;;19.50;99.90;;;;;;5014686;28;19909;-73
2022/07/01 00:19:03;;;;;;;;;;;19.40;99.90;;;;;;5016392;28;19914;-71
2022/07/01 00:21:29;;;;;;;;;;;19.30;99.90;;;;;;5013876;28;19910;-71
2022/07/01 00:23:55;;;;;;;;;;;19.20;99.90;;;;;;5015700;28;19917;-72
2022/07/01 00:26:20;;;;;;;;;;;19.20;99.90;;;;;;5013280;28;19905;-72
2022/07/01 00:28:46;;;;;;;;;;;19.30;99.90;;;;;;5014503;28;19905;-72
2022/07/01 00:31:11;;;;;;;;;;;19.30;99.90;;;;;;5016371;28;19906;-73
2022/07/01 00:33:37;;;;;;;;;;;19.30;99.90;;;;;;5014684;28;19914;-72
2022/07/01 00:36:02;;;;;;;;;;;19.30;99.90;;;;;;5015508;28;19913;-73
2022/07/01 00:38:28;;;;;;;;;;;19.30;99.90;;;;;;5016389;28;19932;-73
2022/07/01 00:40:54;;;;;;;;;;;19.30;99.90;;;;;;5014819;28;19996;-73
2022/07/01 00:43:22;;;;;;;;;;;19.20;99.90;;;;;;5015870;28;19913;-73
2022/07/01 00:45:49;;;;;;;;;;;19.30;99.90;;;;;;5016912;28;20326;-74
2022/07/01 00:48:16;;;;;;;;;;;19.30;99.90;;;;;;5016467;28;19905;-73
2022/07/01 00:50:42;;;;;;;;;;;19.20;99.90;;;;;;5016084;28;20363;-72
2022/07/01 00:53:07;;;;;;;;;;;19.20;99.90;;;;;;5016095;28;19905;-72
2022/07/01 00:55:32;;;;;;;;;;;19.10;99.90;;;;;;5016248;28;19905;-72
2022/07/01 00:57:58;;;;;;;;;;;19.10;99.90;;;;;;5015922;28;20000;-73
2022/07/01 01:00:24;;;;;;;;;;;19.20;99.90;;;;;;5013580;28;20426;-73
2022/07/01 01:02:50;;;;;;;;;;;19.00;99.90;;;;;;5016481;28;19916;-73
2022/07/01 01:05:17;;;;;;;;;;;19.10;99.90;;;;;;5014549;28;19905;-73
2022/07/01 01:07:44;;;;;;;;;;;19.00;99.90;;;;;;5017318;28;19905;-73
2022/07/01 01:10:09;;;;;;;;;;;18.90;99.90;;;;;;5021784;28;19906;-72
2022/07/01 01:12:35;;;;;;;;;;;18.90;99.90;;;;;;5014912;28;19905;-72
2022/07/01 01:15:01;;;;;;;;;;;18.90;99.90;;;;;;5013866;28;19905;-74
2022/07/01 01:17:27;;;;;;;;;;;18.90;99.90;;;;;;5015370;28;20326;-73
2022/07/01 01:19:53;;;;;;;;;;;18.80;99.90;;;;;;5015385;28;19905;-73
2022/07/01 01:22:19;;;;;;;;;;;18.90;99.90;;;;;;5015723;28;19909;-73
2022/07/01 01:24:45;;;;;;;;;;;18.90;99.90;;;;;;5016399;28;19909;-73
2022/07/01 01:27:11;;;;;;;;;;;18.90;99.90;;;;;;5015488;28;19916;-73
2022/07/01 01:29:37;;;;;;;;;;;18.80;99.90;;;;;;5017563;28;19906;-71
2022/07/01 01:32:03;;;;;;;;;;;18.70;99.90;;;;;;5015610;28;19940;-70
2022/07/01 01:34:29;;;;;;;;;;;18.60;99.90;;;;;;5015095;28;20060;-72
2022/07/01 01:36:55;;;;;;;;;;;18.60;99.90;;;;;;5013987;28;20378;-72
2022/07/01 01:39:20;;;;;;;;;;;18.60;99.90;;;;;;5013999;28;19916;-72
2022/07/01 01:41:47;;;;;;;;;;;18.60;99.90;;;;;;5013561;28;19914;-72
2022/07/01 01:44:13;;;;;;;;;;;18.60;99.90;;;;;;5013370;28;20317;-71
2022/07/01 01:46:38;;;;;;;;;;;18.60;99.90;;;;;;5013389;28;19905;-71
2022/07/01 01:49:04;;;;;;;;;;;18.60;99.90;;;;;;5013977;28;19915;-72
2022/07/01 01:51:30;;;;;;;;;;;18.50;99.90;;;;;;5013827;28;20377;-71
2022/07/01 01:53:56;;;;;;;;;;;18.40;99.90;;;;;;5012819;28;19912;-71
2022/07/01 01:56:21;;;;;;;;;;;18.30;99.90;;;;;;5012994;28;20008;-72
2022/07/01 01:58:47;;;;;;;;;;;18.30;99.90;;;;;;5012995;28;19952;-71
2022/07/01 02:01:13;;;;;;;;;;;18.20;99.90;;;;;;5015655;28;19905;-71
2022/07/01 02:03:39;;;;;;;;;;;18.20;99.90;;;;;;5015674;28;20347;-71
2022/07/01 02:06:06;;;;;;;;;;;18.10;99.90;;;;;;5015781;28;19909;-71
2022/07/01 02:08:31;;;;;;;;;;;18.00;99.90;;;;;;5016062;28;20345;-72
2022/07/01 02:10:57;;;;;;;;;;;17.90;99.90;;;;;;5015745;28;19949;-71
2022/07/01 02:13:23;;;;;;;;;;;17.60;99.90;;;;;;5015641;28;19945;-71
2022/07/01 02:15:49;;;;;;;;;;;17.50;99.90;;;;;;5015753;28;19905;-71
2022/07/01 02:18:15;;;;;;;;;;;17.30;99.90;;;;;;5015743;28;20374;-72
2022/07/01 02:20:41;;;;;;;;;;;17.10;99.90;;;;;;5015163;28;19905;-73
2022/07/01 02:23:07;;;;;;;;;;;17.10;99.90;;;;;;5014171;28;19909;-71
2022/07/01 02:25:32;;;;;;;;;;;17.10;99.90;;;;;;5015337;28;19931;-72
2022/07/01 02:27:58;;;;;;;;;;;17.00;99.90;;;;;;5014421;28;20008;-71
2022/07/01 02:30:24;;;;;;;;;;;17.00;99.90;;;;;;5017743;28;19909;-72
2022/07/01 02:32:50;;;;;;;;;;;17.00;99.90;;;;;;5015322;28;20369;-71
2022/07/01 02:35:15;;;;;;;;;;;16.90;99.90;;;;;;5015670;28;19905;-71
2022/07/01 02:37:41;;;;;;;;;;;16.80;99.90;;;;;;5015920;28;19992;-72
2022/07/01 02:40:06;;;;;;;;;;;16.70;99.90;;;;;;5016687;28;20266;-72
2022/07/01 02:42:35;;;;;;;;;;;16.70;99.90;;;;;;5016090;28;19916;-72
2022/07/01 02:45:01;;;;;;;;;;;16.60;99.90;;;;;;5016990;28;19905;-72
2022/07/01 02:47:37;;;;;;;;;;;16.60;99.90;;;;;;5020972;28;19992;-72
2022/07/01 02:50:04;;;;;;;;;;;16.50;99.90;;;;;;5016492;28;19905;-72
2022/07/01 02:52:30;;;;;;;;;;;16.50;99.90;;;;;;5015874;28;19906;-72
2022/07/01 02:54:55;;;;;;;;;;;16.40;99.90;;;;;;5015513;28;19927;-72
2022/07/01 02:57:21;;;;;;;;;;;16.50;99.90;;;;;;5015643;28;20426;-72
2022/07/01 02:59:46;;;;;;;;;;;16.40;99.90;;;;;;5017249;28;19992;-72
2022/07/01 03:02:12;;;;;;;;;;;16.50;99.90;;;;;;5018156;28;19909;-72
2022/07/01 03:04:38;;;;;;;;;;;16.40;99.90;;;;;;5018665;28;19913;-72
2022/07/01 03:07:03;;;;;;;;;;;16.40;99.90;;;;;;5017949;28;19906;-73
2022/07/01 03:09:29;;;;;;;;;;;16.30;99.90;;;;;;5018797;28;20008;-72
2022/07/01 03:11:54;;;;;;;;;;;16.30;99.90;;;;;;5017888;28;19936;-72
2022/07/01 03:14:20;;;;;;;;;;;16.30;99.90;;;;;;5018222;28;20004;-72
2022/07/01 03:16:48;;;;;;;;;;;16.40;99.90;;;;;;5017338;28;20012;-72
2022/07/01 03:19:14;;;;;;;;;;;16.40;99.90;;;;;;5016707;28;19906;-72
2022/07/01 03:21:40;;;;;;;;;;;16.40;99.90;;;;;;5017910;28;20023;-72
2022/07/01 03:24:06;;;;;;;;;;;16.40;99.90;;;;;;5017846;28;19933;-72
2022/07/01 03:26:31;;;;;;;;;;;16.40;99.90;;;;;;5018096;28;19905;-73
2022/07/01 03:28:57;;;;;;;;;;;16.40;99.90;;;;;;5018454;28;19906;-72
2022/07/01 03:31:22;;;;;;;;;;;16.50;99.90;;;;;;5018543;28;19909;-72
2022/07/01 03:33:48;;;;;;;;;;;16.50;99.90;;;;;;5016999;28;19920;-73
2022/07/01 03:36:13;;;;;;;;;;;16.50;99.90;;;;;;5018823;28;19909;-72
2022/07/01 03:38:39;;;;;;;;;;;16.50;99.90;;;;;;5018690;28;20370;-72
2022/07/01 03:41:04;;;;;;;;;;;16.60;99.90;;;;;;5018027;28;19944;-72
2022/07/01 03:43:30;;;;;;;;;;;16.50;99.90;;;;;;5016942;28;19910;-73
2022/07/01 03:45:56;;;;;;;;;;;16.60;99.90;;;;;;5018278;28;20383;-72
2022/07/01 03:48:22;;;;;;;;;;;16.60;99.90;;;;;;5018642;28;19905;-72
2022/07/01 03:50:47;;;;;;;;;;;16.60;99.90;;;;;;5018590;28;19905;-73
2022/07/01 03:55:57;;;;;;;;;;;16.60;99.90;;;;;;5019249;28;19912;-72
2022/07/01 03:58:23;;;;;;;;;;;16.60;99.90;;;;;;5018779;28;19909;-72
2022/07/01 04:00:48;;;;;;;;;;;16.60;99.90;;;;;;5018797;28;19960;-72
2022/07/01 04:03:14;;;;;;;;;;;16.50;99.90;;;;;;5019240;28;19919;-72
2022/07/01 04:05:40;;;;;;;;;;;16.50;99.90;;;;;;5020226;28;19906;-72
2022/07/01 04:08:07;;;;;;;;;;;16.50;99.90;;;;;;5020407;28;19955;-72
2022/07/01 04:10:33;;;;;;;;;;;16.50;99.90;;;;;;5020996;28;19955;-72
2022/07/01 04:13:00;;;;;;;;;;;16.60;99.90;;;;;;5019881;28;20329;-72
2022/07/01 04:15:25;;;;;;;;;;;16.60;99.90;;;;;;5021425;28;19929;-71
2022/07/01 04:17:51;;;;;;;;;;;16.70;99.90;;;;;;5022575;28;19938;-72
2022/07/01 04:20:17;;;;;;;;;;;16.70;99.90;;;;;;5021907;28;19905;-72
2022/07/01 04:22:42;;;;;;;;;;;16.80;99.90;;;;;;5019703;28;19911;-71
2022/07/01 04:25:08;;;;;;;;;;;16.80;99.90;;;;;;5019481;28;20325;-73
2022/07/01 04:27:33;;;;;;;;;;;16.80;99.90;;;;;;5020048;28;20310;-71
2022/07/01 04:29:59;;;;;;;;;;;16.70;99.90;;;;;;5020253;28;20279;-72
2022/07/01 04:32:25;;;;;;;;;;;16.70;99.90;;;;;;5017362;28;20010;-72
2022/07/01 04:34:51;;;;;;;;;;;16.60;99.90;;;;;;5018137;28;19940;-72
2022/07/01 04:37:16;;;;;;;;;;;16.50;99.90;;;;;;5016643;28;19906;-72
2022/07/01 04:39:42;;;;;;;;;;;16.40;99.90;;;;;;5016555;28;19981;-72
2022/07/01 04:42:07;;;;;;;;;;;16.30;99.90;;;;;;5017133;28;19917;-72
2022/07/01 04:44:34;;;;;;;;;;;16.20;99.90;;;;;;5016716;28;19964;-72
2022/07/01 04:47:00;;;;;;;;;;;16.20;99.90;;;;;;5018457;28;19987;-72
2022/07/01 04:49:26;;;;;;;;;;;16.10;99.90;;;;;;5023244;28;19905;-72
2022/07/01 04:51:51;;;;;;;;;;;16.10;99.90;;;;;;5021701;28;19905;-72
2022/07/01 04:54:17;;;;;;;;;;;16.00;99.90;;;;;;5024331;28;19905;-72
2022/07/01 04:56:43;;;;;;;;;;;16.00;99.90;;;;;;5019985;28;19964;-72
2022/07/01 04:59:08;;;;;;;;;;;16.00;99.90;;;;;;5017600;28;19967;-71
2022/07/01 05:01:34;;;;;;;;;;;16.10;99.90;;;;;;5018775;28;20003;-71
2022/07/01 05:04:00;;;;;;;;;;;16.00;99.90;;;;;;5026089;28;19905;-70
2022/07/01 05:06:26;;;;;;;;;;;15.90;99.90;;;;;;5028132;28;19906;-71
2022/07/01 05:08:51;;;;;;;;;;;15.90;99.90;;;;;;5017243;28;19912;-71
2022/07/01 05:11:17;;;;;;;;;;;15.80;99.90;;;;;;5016813;28;19906;-71
2022/07/01 05:13:42;;;;;;;;;;;15.80;99.90;;;;;;5016941;28;19906;-72
2022/07/01 05:16:08;;;;;;;;;;;15.80;99.90;;;;;;5016502;28;19912;-72
2022/07/01 05:24:03;;;;;;;;;;;15.90;99.90;;;;;;5018305;28;20370;-72
2022/07/01 05:26:28;;;;;;;;;;;15.90;99.90;;;;;;5018805;28;19906;-72
2022/07/01 05:28:54;;;;;;;;;;;16.00;99.90;;;;;;5017809;28;19976;-72
2022/07/01 05:31:20;;;;;;;;;;;16.00;99.90;;;;;;5017290;28;19905;-72
2022/07/01 05:33:46;;;;;;;;;;;16.10;99.90;;;;;;5016977;28;19979;-72
2022/07/01 05:36:11;;;;;;;;;;;16.10;99.90;;;;;;5017314;28;19955;-74
2022/07/01 05:38:37;;;;;;;;;;;16.10;99.90;;;;;;5016875;28;19912;-72
2022/07/01 05:41:02;;;;;;;;;;;16.10;99.90;;;;;;5017294;28;19912;-72
2022/07/01 05:43:29;;;;;;;;;;;16.30;99.90;;;;;;5016894;28;20023;-73
2022/07/01 05:45:54;;;;;;;;;;;16.30;99.90;;;;;;5015323;28;19913;-72
2022/07/01 05:48:20;;;;;;;;;;;16.30;99.90;;;;;;5017062;28;19913;-72
2022/07/01 05:50:47;;;;;;;;;;;16.40;99.90;;;;;;5015090;28;19905;-73
2022/07/01 05:53:12;;;;;;;;;;;16.40;99.90;;;;;;5015858;28;19909;-72
2022/07/01 05:55:38;;;;;;;;;;;16.50;99.90;;;;;;5015247;28;19905;-73
2022/07/01 05:58:05;;;;;;;;;;;16.50;99.90;;;;;;5014360;28;19905;-73
2022/07/01 06:00:31;;;;;;;;;;;16.50;99.90;;;;;;5015801;28;19921;-72
2022/07/01 06:02:56;;;;;;;;;;;16.40;99.90;;;;;;5015873;28;19909;-72
2022/07/01 06:05:22;;;;;;;;;;;16.60;99.90;;;;;;5015489;28;19905;-72
2022/07/01 06:07:47;;;;;;;;;;;16.50;99.90;;;;;;5014427;28;19909;-73
2022/07/01 06:10:13;;;;;;;;;;;16.60;99.90;;;;;;5015516;28;19992;-72
2022/07/01 06:12:38;;;;;;;;;;;16.50;99.90;;;;;;5013683;28;20367;-71
2022/07/01 06:15:05;;;;;;;;;;;16.60;99.90;;;;;;5013408;28;19909;-72
2022/07/01 06:17:31;;;;;;;;;;;16.50;99.90;;;;;;5012335;28;20362;-71
2022/07/01 06:19:56;;;;;;;;;;;16.60;99.90;;;;;;5014121;28;19906;-72
2022/07/01 06:22:22;;;;;;;;;;;16.60;99.90;;;;;;5013434;28;19960;-72
2022/07/01 06:24:47;;;;;;;;;;;16.60;99.90;;;;;;5013973;28;19905;-73
2022/07/01 06:27:13;;;;;;;;;;;16.60;99.90;;;;;;5015035;28;19948;-72
2022/07/01 06:29:38;;;;;;;;;;;16.50;99.90;;;;;;5018131;28;20355;-72
2022/07/01 06:32:05;;;;;;;;;;;16.60;99.90;;;;;;5017382;28;19905;-72
2022/07/01 06:34:30;;;;;;;;;;;16.60;99.90;;;;;;5019905;28;19906;-72
2022/07/01 06:36:56;;;;;;;;;;;16.60;99.90;;;;;;5019193;28;19921;-72
2022/07/01 06:39:21;;;;;;;;;;;16.70;99.90;;;;;;5017938;28;20262;-72
2022/07/01 06:41:47;;;;;;;;;;;16.80;99.90;;;;;;5019139;28;19916;-72
2022/07/01 06:44:13;;;;;;;;;;;16.70;99.90;;;;;;5018818;28;20421;-72
2022/07/01 06:46:38;;;;;;;;;;;16.70;99.90;;;;;;5018937;28;19912;-72
2022/07/01 06:49:04;;;;;;;;;;;16.60;99.90;;;;;;5019845;28;20000;-72
2022/07/01 06:51:29;;;;;;;;;;;16.60;99.90;;;;;;5019631;28;20335;-72
2022/07/01 06:53:55;;;;;;;;;;;16.60;99.90;;;;;;5018104;28;20371;-72
2022/07/01 06:56:20;;;;;;;;;;;16.70;99.90;;;;;;5019030;28;19906;-73
2022/07/01 06:58:46;;;;;;;;;;;16.70;99.90;;;;;;5018701;28;20337;-72
2022/07/01 07:01:11;;;;;;;;;;;16.70;99.90;;;;;;5019129;28;20358;-72
2022/07/01 07:03:38;;;;;;;;;;;16.90;99.90;;;;;;5018643;28;19909;-72
2022/07/01 07:06:03;;;;;;;;;;;17.00;99.90;;;;;;5018724;28;19931;-73
2022/07/01 07:08:30;;;;;;;;;;;17.10;99.90;;;;;;5018768;28;20003;-72
2022/07/01 07:10:55;;;;;;;;;;;17.10;99.90;;;;;;5018551;28;19913;-72
2022/07/01 07:13:21;;;;;;;;;;;17.10;99.90;;;;;;5018630;28;20271;-72
2022/07/01 07:15:46;;;;;;;;;;;17.00;99.90;;;;;;5018074;28;19913;-72
2022/07/01 07:18:12;;;;;;;;;;;17.00;99.90;;;;;;5018695;28;19956;-71
2022/07/01 07:20:38;;;;;;;;;;;17.00;99.90;;;;;;5017213;28;19912;-73
2022/07/01 07:23:04;;;;;;;;;;;16.90;99.90;;;;;;5018035;28;20330;-72
2022/07/01 07:25:29;;;;;;;;;;;16.90;99.90;;;;;;5018258;28;20004;-72
2022/07/01 07:27:55;;;;;;;;;;;16.80;99.90;;;;;;5018461;28;19905;-72
2022/07/01 07:30:20;;;;;;;;;;;16.70;99.90;;;;;;5012093;28;20286;-72
2022/07/01 07:32:46;;;;;;;;;;;16.80;99.90;;;;;;5007422;28;19914;-72
2022/07/01 07:35:12;;;;;;;;;;;16.80;99.90;;;;;;5002749;28;19909;-72
2022/07/01 07:37:38;;;;;;;;;;;16.80;99.90;;;;;;5005625;28;19921;-72
2022/07/01 07:40:06;;;;;;;;;;;16.90;99.90;;;;;;4999536;28;19992;-73
2022/07/01 07:42:32;;;;;;;;;;;17.00;99.90;;;;;;5013051;28;19921;-73
2022/07/01 07:44:57;;;;;;;;;;;17.10;99.90;;;;;;4997770;28;19905;-73
2022/07/01 07:47:23;;;;;;;;;;;17.10;99.90;;;;;;4998731;28;19910;-72
2022/07/01 07:49:48;;;;;;;;;;;17.20;99.90;;;;;;4997217;28;19996;-72
2022/07/01 07:52:13;;;;;;;;;;;17.30;99.90;;;;;;4998399;28;19910;-73
2022/07/01 07:54:39;;;;;;;;;;;17.40;99.90;;;;;;4998883;28;19906;-72
2022/07/01 07:57:05;;;;;;;;;;;17.30;99.90;;;;;;4998930;28;19948;-72
2022/07/01 07:59:30;;;;;;;;;;;17.30;99.90;;;;;;5013498;28;19960;-72
2022/07/01 08:01:56;;;;;;;;;;;17.30;99.90;;;;;;5001447;28;19924;-72
2022/07/01 08:04:21;;;;;;;;;;;17.30;99.90;;;;;;5015708;28;20335;-72
2022/07/01 08:06:47;;;;;;;;;;;17.20;99.90;;;;;;5018540;28;20367;-73
2022/07/01 08:09:12;;;;;;;;;;;17.20;99.90;;;;;;5019779;28;19909;-71
2022/07/01 08:11:38;;;;;;;;;;;16.90;99.90;;;;;;5020186;28;19905;-72
2022/07/01 08:14:03;;;;;;;;;;;16.90;99.90;;;;;;5019465;28;19905;-72
2022/07/01 08:16:29;;;;;;;;;;;16.80;99.90;;;;;;5019018;28;19909;-72
2022/07/01 08:18:55;;;;;;;;;;;16.80;99.90;;;;;;5018278;28;19905;-72
2022/07/01 08:21:21;;;;;;;;;;;16.80;99.90;;;;;;5020521;28;19905;-71
2022/07/01 08:23:49;;;;;;;;;;;16.70;99.90;;;;;;5019903;28;19909;-71
2022/07/01 08:26:16;;;;;;;;;;;16.80;99.90;;;;;;5020313;28;19936;-71
2022/07/01 08:28:42;;;;;;;;;;;16.70;99.90;;;;;;5020103;28;19920;-72
2022/07/01 08:31:07;;;;;;;;;;;16.60;99.90;;;;;;5020595;28;19905;-73
2022/07/01 08:33:33;;;;;;;;;;;16.60;99.90;;;;;;5019632;28;19978;-72
2022/07/01 08:35:58;;;;;;;;;;;16.60;99.90;;;;;;5018745;28;19917;-73
2022/07/01 08:38:24;;;;;;;;;;;16.60;99.90;;;;;;5015994;28;19960;-72
2022/07/01 08:40:49;;;;;;;;;;;16.60;99.90;;;;;;5013288;28;19910;-73
2022/07/01 08:43:15;;;;;;;;;;;16.70;99.90;;;;;;5009863;28;19956;-75
2022/07/01 08:45:41;;;;;;;;;;;16.80;99.90;;;;;;5019279;28;19912;-74
2022/07/01 08:48:06;;;;;;;;;;;16.80;99.90;;;;;;5018547;28;19912;-75
2022/07/01 08:50:36;;;;;;;;;;;16.80;99.90;;;;;;5017824;28;19955;-75
2022/07/01 08:53:02;;;;;;;;;;;16.70;99.90;;;;;;5018132;28;19913;-74
2022/07/01 08:55:27;;;;;;;;;;;16.70;99.90;;;;;;5017020;28;19905;-74
2022/07/01 08:57:53;;;;;;;;;;;16.70;99.90;;;;;;5027756;28;19956;-76
2022/07/01 09:00:19;;;;;;;;;;;16.70;99.90;;;;;;5017681;28;19964;-75
2022/07/01 09:02:49;;;;;;;;;;;16.80;99.90;;;;;;5008622;28;19939;-75
2022/07/01 09:05:14;;;;;;;;;;;16.70;99.90;;;;;;5006219;28;19913;-75
2022/07/01 09:07:40;;;;;;;;;;;16.70;99.90;;;;;;5017305;28;19971;-75
2022/07/01 09:10:12;;;;;;;;;;;16.90;99.90;;;;;;5015118;28;19955;-75
2022/07/01 09:12:39;;;;;;;;;;;17.00;99.90;;;;;;5015445;28;19909;-75
2022/07/01 09:15:18;;;;;;;;;;;17.00;99.90;;;;;;5014700;28;19936;-75
2022/07/01 09:17:43;;;;;;;;;;;17.10;99.90;;;;;;5009283;28;19921;-75
2022/07/01 09:20:22;;;;;;;;;;;17.20;99.90;;;;;;4996521;28;19906;-75
2022/07/01 09:23:00;;;;;;;;;;;17.20;99.90;;;;;;5003160;28;20306;-73
2022/07/01 09:25:30;;;;;;;;;;;17.20;99.90;;;;;;5025232;22;19925;-49
2022/07/01 09:28:03;;;;;;;;;;;17.30;99.90;;;;;;5014300;28;20235;-49
2022/07/01 09:30:28;;;;;;;;;;;17.40;99.90;;;;;;5013972;28;20052;-53
2022/07/01 09:33:11;;;;;;;;;;;17.50;99.90;;;;;;5014899;28;19929;-50
2022/07/01 09:35:37;;;;;;;;;;;17.60;99.90;;;;;;5014410;28;19909;-50
2022/07/01 09:38:03;;;;;;;;;;;17.60;99.90;;;;;;5014872;28;20278;-51
2022/07/01 09:40:48;;;;;;;;;;;17.60;99.90;;;;;;5014376;28;20279;-53
2022/07/01 09:43:17;;;;;;;;;;;17.60;99.90;;;;;;5014249;28;19906;-52
2022/07/01 09:46:09;;;;;;;;;;;17.70;99.90;;;;;;5012702;28;19915;-50
2022/07/01 09:48:35;;;;;;;;;;;17.80;99.90;;;;;;5012479;28;20298;-53
2022/07/01 09:51:01;;;;;;;;;;;17.90;99.90;;;;;;5014168;28;19906;-50
2022/07/01 09:53:27;;;;;;;;;;;17.90;99.90;;;;;;5013986;28;20259;-53
2022/07/01 09:55:52;;;;;;;;;;;17.90;99.90;;;;;;5013659;28;19905;-52
2022/07/01 09:58:18;;;;;;;;;;;17.80;99.90;;;;;;5013949;28;19905;-52
2022/07/01 10:00:44;;;;;;;;;;;17.80;99.90;;;;;;5012804;28;19913;-51
2022/07/01 10:03:09;;;;;;;;;;;17.90;99.90;;;;;;5012455;28;19917;-48
2022/07/01 10:05:55;;;;;;;;;;;17.90;99.90;;;;;;5012396;28;19913;-51
2022/07/01 10:08:33;;;;;;;;;;;17.90;99.90;;;;;;5012366;28;19913;-50
2022/07/01 10:11:16;;;;;;;;;;;17.80;99.90;;;;;;5013799;28;19992;-49
2022/07/01 10:13:41;;;;;;;;;;;17.80;99.90;;;;;;5013634;28;20316;-50
2022/07/01 10:16:08;;;;;;;;;;;17.90;99.90;;;;;;5013469;28;19971;-54
2022/07/01 10:18:34;;;;;;;;;;;18.00;99.90;;;;;;5013275;28;19940;-54
2022/07/01 10:21:00;;;;;;;;;;;18.00;99.90;;;;;;5012375;28;19912;-51
2022/07/01 10:23:42;;;;;;;;;;;18.10;99.90;;;;;;5011782;28;19915;-53
2022/07/01 10:26:07;;;;;;;;;;;18.10;99.90;;;;;;5013632;28;19909;-51
2022/07/01 10:28:48;;;;;;;;;;;18.10;99.90;;;;;;5012967;28;19912;-51
2022/07/01 10:31:15;;;;;;;;;;;18.10;99.90;;;;;;5012864;28;19912;-50
2022/07/01 10:33:48;;;;;;;;;;;18.10;99.90;;;;;;5012819;28;19916;-52
2022/07/01 10:36:17;;;;;;;;;;;18.10;99.90;;;;;;5013395;28;19906;-55
2022/07/01 10:39:06;;;;;;;;;;;18.10;99.90;;;;;;5013416;28;20389;-52
2022/07/01 10:41:31;;;;;;;;;;;18.20;99.90;;;;;;5013555;28;19988;-52
2022/07/01 10:43:58;;;;;;;;;;;18.20;99.90;;;;;;5013278;28;20372;-52
2022/07/01 10:46:43;;;;;;;;;;;18.20;99.90;;;;;;5013221;28;19906;-51
2022/07/01 10:49:11;;;;;;;;;;;18.20;99.90;;;;;;5013803;28;20446;-53
2022/07/01 10:51:43;;;;;;;;;;;18.30;99.90;;;;;;5013386;28;19905;-54
2022/07/01 10:54:08;;;;;;;;;;;18.50;99.90;;;;;;5013228;28;19905;-53
2022/07/01 10:56:40;;;;;;;;;;;18.50;99.90;;;;;;5012910;28;19905;-54
2022/07/01 10:59:06;;;;;;;;;;;18.60;99.90;;;;;;5013875;28;20007;-53
2022/07/01 11:01:32;;;;;;;;;;;18.70;99.90;;;;;;5013314;28;19951;-50
2022/07/01 11:03:57;;;;;;;;;;;18.80;99.90;;;;;;5013219;28;20430;-54
2022/07/01 11:06:24;;;;;;;;;;;18.80;99.90;;;;;;5013242;28;19905;-55
2022/07/01 11:08:49;;;;;;;;;;;18.90;99.90;;;;;;5013063;28;19912;-56
2022/07/01 11:11:15;;;;;;;;;;;19.00;99.90;;;;;;5013664;28;19913;-55
2022/07/01 11:13:41;;;;;;;;;;;19.20;99.90;;;;;;5015297;28;19916;-51
2022/07/01 11:16:08;;;;;;;;;;;19.20;99.90;;;;;;5013146;28;19992;-49
2022/07/01 11:18:34;;;;;;;;;;;19.30;99.90;;;;;;5012479;28;19971;-53
2022/07/01 11:21:06;;;;;;;;;;;19.40;99.90;;;;;;5016591;28;20295;-51
2022/07/01 11:23:32;;;;;;;;;;;19.50;99.90;;;;;;5016533;28;19905;-50
2022/07/01 11:25:57;;;;;;;;;;;19.50;99.90;;;;;;5016810;28;19916;-51
2022/07/01 11:28:23;;;;;;;;;;;19.80;99.90;;;;;;5016528;28;20281;-55
2022/07/01 11:30:57;;;;;;;;;;;19.90;99.90;;;;;;5016860;28;19906;-53
2022/07/01 11:33:22;;;;;;;;;;;20.10;99.90;;;;;;5016081;28;19936;-50
2022/07/01 11:41:24;;;;;;;;;;;20.50;99.90;;;;;;5016790;28;19912;-53
2022/07/01 11:43:51;;;;;;;;;;;20.60;99.90;;;;;;5016238;28;19909;-53
2022/07/01 11:46:16;;;;;;;;;;;20.70;99.90;;;;;;5016091;28;19905;-54
2022/07/01 11:48:44;;;;;;;;;;;20.60;99.90;;;;;;5016138;28;19906;-51
2022/07/01 11:51:14;;;;;;;;;;;20.60;99.90;;;;;;5014604;28;19959;-52
2022/07/01 11:53:41;;;;;;;;;;;20.70;99.90;;;;;;5016324;28;19909;-52
2022/07/01 11:56:07;;;;;;;;;;;20.70;99.90;;;;;;5016114;28;19928;-55
2022/07/01 11:58:45;;;;;;;;;;;20.80;99.90;;;;;;5016323;28;19912;-53
2022/07/01 12:01:10;;;;;;;;;;;20.90;99.90;;;;;;5015851;28;19996;-55
2022/07/01 12:03:37;;;;;;;;;;;21.10;99.90;;;;;;5016141;28;20365;-52
2022/07/01 12:06:03;;;;;;;;;;;21.20;99.90;;;;;;5016177;28;19906;-55
2022/07/01 12:08:29;;;;;;;;;;;21.10;99.90;;;;;;5016390;28;20289;-51
2022/07/01 12:10:57;;;;;;;;;;;21.20;99.90;;;;;;5016194;28;20000;-50
2022/07/01 12:13:24;;;;;;;;;;;21.20;99.90;;;;;;5015633;28;20012;-55
2022/07/01 12:15:49;;;;;;;;;;;21.10;99.90;;;;;;5016212;28;19905;-53
2022/07/01 12:18:16;;;;;;;;;;;21.10;99.90;;;;;;5015692;28;19959;-50
2022/07/01 12:20:54;;;;;;;;;;;21.20;99.90;;;;;;5015902;28;19913;-55
2022/07/01 12:23:20;;;;;;;;;;;21.30;99.90;;;;;;5015941;28;19951;-53
2022/07/01 12:25:46;;;;;;;;;;;21.40;99.90;;;;;;5015392;28;20337;-54
2022/07/01 12:28:24;;;;;;;;;;;21.50;99.90;;;;;;5015977;28;19905;-54
2022/07/01 12:30:58;;;;;;;;;;;21.50;99.90;;;;;;5015576;28;19955;-53
2022/07/01 12:33:23;;;;;;;;;;;21.30;99.90;;;;;;5015812;28;19932;-52
2022/07/01 12:35:49;;;;;;;;;;;21.00;99.90;;;;;;5016480;28;20347;-49
2022/07/01 12:38:15;;;;;;;;;;;20.80;99.90;;;;;;5016176;28;19948;-49
2022/07/01 12:40:41;;;;;;;;;;;20.90;99.90;;;;;;5014726;28;19956;-49
2022/07/01 12:43:21;;;;;;;;;;;20.90;99.90;;;;;;5016159;28;19909;-50
2022/07/01 12:45:47;;;;;;;;;;;20.90;99.90;;;;;;5015661;28;19941;-50
2022/07/01 12:48:12;;;;;;;;;;;20.80;99.90;;;;;;5015490;28;19905;-51
2022/07/01 12:50:38;;;;;;;;;;;20.70;99.90;;;;;;5015177;28;19905;-49
2022/07/01 12:53:04;;;;;;;;;;;20.60;99.90;;;;;;5014926;28;19909;-50
2022/07/01 12:55:34;;;;;;;;;;;20.60;99.90;;;;;;5015078;28;19906;-51
2022/07/01 12:58:00;;;;;;;;;;;20.70;99.90;;;;;;5013658;28;19905;-53
2022/07/01 13:00:27;;;;;;;;;;;20.90;99.90;;;;;;5009385;28;19917;-52
2022/07/01 13:02:54;;;;;;;;;;;21.00;99.90;;;;;;5014860;28;20390;-53
2022/07/01 13:05:20;;;;;;;;;;;20.90;99.90;;;;;;5015092;28;19947;-55
2022/07/01 13:07:45;;;;;;;;;;;21.00;99.90;;;;;;5029861;28;19909;-53
2022/07/01 13:10:11;;;;;;;;;;;21.10;99.90;;;;;;5014636;28;20359;-51
2022/07/01 13:12:37;;;;;;;;;;;21.20;99.90;;;;;;5013992;28;19909;-51
2022/07/01 13:15:03;;;;;;;;;;;21.20;99.90;;;;;;5014009;28;19976;-55
2022/07/01 13:17:28;;;;;;;;;;;21.00;99.90;;;;;;5014020;28;19905;-55
2022/07/01 13:19:54;;;;;;;;;;;20.60;99.90;;;;;;5014482;28;19905;-54
2022/07/01 13:22:19;;;;;;;;;;;20.20;99.90;;;;;;5014744;28;19955;-51
2022/07/01 13:24:45;;;;;;;;;;;20.20;99.90;;;;;;5014671;28;19917;-54
2022/07/01 13:27:11;;;;;;;;;;;20.30;99.90;;;;;;5014922;28;19943;-51
2022/07/01 13:29:36;;;;;;;;;;;20.40;99.90;;;;;;5013027;28;19909;-54
2022/07/01 13:32:02;;;;;;;;;;;20.50;99.90;;;;;;5014853;28;20382;-53
2022/07/01 13:34:28;;;;;;;;;;;20.60;99.90;;;;;;5015248;28;20401;-51
2022/07/01 13:36:53;;;;;;;;;;;20.70;99.90;;;;;;5014892;28;19906;-52
2022/07/01 13:39:19;;;;;;;;;;;20.80;99.90;;;;;;5014411;28;19996;-49
2022/07/01 13:41:44;;;;;;;;;;;20.70;99.90;;;;;;5014207;28;20091;-51
2022/07/01 13:44:10;;;;;;;;;;;20.70;99.90;;;;;;5013703;28;20008;-54
2022/07/01 13:46:35;;;;;;;;;;;20.70;99.90;;;;;;5020758;28;19909;-55
2022/07/01 13:49:01;;;;;;;;;;;20.50;99.90;;;;;;5013395;28;19956;-51
2022/07/01 13:51:27;;;;;;;;;;;20.50;99.90;;;;;;5013586;28;19910;-55
2022/07/01 13:53:53;;;;;;;;;;;20.40;99.90;;;;;;5014310;28;20477;-52
2022/07/01 13:56:18;;;;;;;;;;;20.30;99.90;;;;;;5014715;28;19941;-52
2022/07/01 13:58:44;;;;;;;;;;;20.30;99.90;;;;;;5013999;28;20000;-54
2022/07/01 14:01:09;;;;;;;;;;;20.30;99.90;;;;;;5013367;28;19995;-52
2022/07/01 14:03:35;;;;;;;;;;;20.30;99.90;;;;;;5014234;28;19909;-52
2022/07/01 14:06:00;;;;;;;;;;;20.30;99.90;;;;;;5014434;28;20000;-50
2022/07/01 14:08:26;;;;;;;;;;;20.40;99.90;;;;;;5014370;28;19905;-51
2022/07/01 14:10:53;;;;;;;;;;;20.50;99.90;;;;;;5014526;28;20260;-53
2022/07/01 14:13:20;;;;;;;;;;;20.70;99.90;;;;;;5014056;28;19910;-55
2022/07/01 14:15:47;;;;;;;;;;;20.90;99.90;;;;;;5012807;28;19928;-53
2022/07/01 14:18:12;;;;;;;;;;;21.00;99.90;;;;;;5010589;28;20338;-53
2022/07/01 14:20:39;;;;;;;;;;;21.20;99.90;;;;;;5013146;28;19913;-54
2022/07/01 14:23:05;;;;;;;;;;;21.40;99.90;;;;;;5011291;28;20465;-54
2022/07/01 14:25:30;;;;;;;;;;;21.50;99.90;;;;;;5012292;28;20000;-53
2022/07/01 14:27:56;;;;;;;;;;;21.70;99.90;;;;;;5010929;28;20366;-53